TimeCST,TemperatureF,Dew PointF,Humidity,Sea Level PressureIn,VisibilityMPH,Wind Direction,Wind SpeedMPH,Gust SpeedMPH,PrecipitationIn,Events,Conditions,WindDirDegrees,DateUTC
12:15 AM,45.0,36.7,73,30.29,10.0,SE,9.2,-,N/A,,Clear,140,2012-11-19 06:15:00
12:35 AM,44.8,36.5,73,30.29,10.0,South,4.6,-,N/A,,Clear,170,2012-11-19 06:35:00
12:55 AM,44.6,35.6,71,30.29,10.0,SE,4.6,-,N/A,,Clear,130,2012-11-19 06:55:00
1:15 AM,41.9,35.6,78,30.28,10.0,SE,5.8,-,N/A,,Clear,140,2012-11-19 07:15:00
1:35 AM,41.2,35.6,81,30.28,10.0,ESE,3.5,-,N/A,,Clear,120,2012-11-19 07:35:00
1:55 AM,41.2,35.8,81,30.28,10.0,ESE,3.5,-,N/A,,Clear,120,2012-11-19 07:55:00
2:15 AM,41.2,36.3,83,30.27,10.0,East,4.6,-,N/A,,Clear,100,2012-11-19 08:15:00
2:35 AM,41.2,35.6,81,30.27,10.0,East,3.5,-,N/A,,Clear,90,2012-11-19 08:35:00
2:55 AM,39.6,35.2,85,30.26,7.0,Calm,Calm,-,N/A,,Clear,0,2012-11-19 08:55:00
3:15 AM,38.7,34.7,86,30.26,7.0,Calm,Calm,-,N/A,,Clear,0,2012-11-19 09:15:00
3:35 AM,41.2,36.5,83,30.26,10.0,ESE,3.5,-,N/A,,Clear,110,2012-11-19 09:35:00
3:55 AM,41.2,36.5,83,30.26,7.0,Calm,Calm,-,N/A,,Clear,0,2012-11-19 09:55:00
4:15 AM,41.2,37.0,85,30.26,7.0,Calm,Calm,-,N/A,,Clear,0,2012-11-19 10:15:00
4:35 AM,41.2,36.9,85,30.26,7.0,Calm,Calm,-,N/A,,Clear,0,2012-11-19 10:35:00
4:55 AM,39.6,35.8,86,30.25,7.0,SE,3.5,-,N/A,,Clear,130,2012-11-19 10:55:00
5:15 AM,43.2,37.4,80,30.25,10.0,SE,5.8,-,N/A,,Clear,140,2012-11-19 11:15:00
5:35 AM,41.2,36.0,82,30.24,7.0,SE,9.2,-,N/A,,Clear,130,2012-11-19 11:35:00
5:55 AM,41.2,36.0,82,30.25,7.0,SE,8.1,-,N/A,,Clear,130,2012-11-19 11:55:00
6:15 AM,41.2,36.1,82,30.24,7.0,ESE,8.1,-,N/A,,Clear,120,2012-11-19 12:15:00
6:35 AM,41.4,36.0,81,30.24,7.0,ESE,8.1,-,N/A,,Scattered Clouds,120,2012-11-19 12:35:00
6:55 AM,41.2,36.0,82,30.23,7.0,ESE,9.2,-,N/A,,Scattered Clouds,110,2012-11-19 12:55:00
7:15 AM,41.7,36.5,82,30.24,10.0,Calm,Calm,-,N/A,,Clear,0,2012-11-19 13:15:00
7:35 AM,41.2,36.5,83,30.24,7.0,SE,4.6,-,N/A,,Clear,130,2012-11-19 13:35:00
7:55 AM,43.7,37.6,79,30.25,3.0,SE,5.8,-,N/A,,Haze,140,2012-11-19 13:55:00
8:15 AM,43.7,38.5,82,30.24,7.0,SE,3.5,-,N/A,,Clear,140,2012-11-19 14:15:00
8:35 AM,43.7,37.9,80,30.24,7.0,ESE,5.8,-,N/A,,Clear,120,2012-11-19 14:35:00
8:55 AM,44.6,37.4,76,30.23,10.0,ESE,5.8,-,N/A,,Clear,120,2012-11-19 14:55:00
9:15 AM,45.0,37.9,76,30.23,7.0,SE,9.2,-,N/A,,Clear,130,2012-11-19 15:15:00
9:35 AM,46.8,38.3,72,30.23,10.0,SSE,8.1,-,N/A,,Clear,150,2012-11-19 15:35:00
9:55 AM,47.8,38.1,69,30.24,10.0,SSE,10.4,-,N/A,,Clear,160,2012-11-19 15:55:00
10:15 AM,48.4,38.1,68,30.23,10.0,SSE,9.2,-,N/A,,Clear,150,2012-11-19 16:15:00
10:35 AM,51.4,40.3,66,30.23,10.0,South,9.2,-,N/A,,Clear,170,2012-11-19 16:35:00
10:55 AM,51.4,39.9,65,30.22,10.0,South,8.1,-,N/A,,Clear,180,2012-11-19 16:55:00
11:15 AM,51.4,40.1,65,30.21,10.0,SSE,10.4,-,N/A,,Scattered Clouds,160,2012-11-19 17:15:00
11:35 AM,51.4,40.3,66,30.20,10.0,South,11.5,-,N/A,,Mostly Cloudy,170,2012-11-19 17:35:00
11:55 AM,51.4,40.8,67,30.20,10.0,South,9.2,-,N/A,,Overcast,170,2012-11-19 17:55:00
12:15 PM,54.0,42.3,65,30.19,10.0,South,8.1,-,N/A,,Overcast,170,2012-11-19 18:15:00
12:35 PM,52.0,41.2,67,30.19,10.0,South,4.6,-,N/A,,Overcast,170,2012-11-19 18:35:00
12:55 PM,54.0,42.8,66,30.18,10.0,South,9.2,-,N/A,,Overcast,170,2012-11-19 18:55:00
1:15 PM,54.0,42.6,65,30.17,10.0,SSE,9.2,-,N/A,,Overcast,160,2012-11-19 19:15:00
1:35 PM,55.0,41.9,61,30.16,10.0,SSE,9.2,-,N/A,,Overcast,150,2012-11-19 19:35:00
1:55 PM,54.1,42.4,65,30.15,4.0,SSE,12.7,-,N/A,,Haze,150,2012-11-19 19:55:00
2:15 PM,55.4,43.7,65,30.14,10.0,SE,10.4,-,N/A,,Overcast,130,2012-11-19 20:15:00
2:35 PM,54.3,43.5,67,30.14,10.0,SSE,11.5,-,N/A,,Overcast,150,2012-11-19 20:35:00
2:55 PM,53.6,44.6,72,30.14,10.0,SE,13.8,-,N/A,,Mostly Cloudy,140,2012-11-19 20:55:00
3:15 PM,54.0,44.6,71,30.13,10.0,SE,11.5,-,N/A,,Mostly Cloudy,140,2012-11-19 21:15:00
3:35 PM,54.0,45.0,72,30.12,10.0,SE,10.4,-,N/A,,Overcast,130,2012-11-19 21:35:00
3:55 PM,54.0,45.5,73,30.12,10.0,SE,9.2,-,N/A,,Overcast,130,2012-11-19 21:55:00
4:15 PM,54.0,45.3,73,30.11,10.0,SSE,11.5,17.3,N/A,,Overcast,150,2012-11-19 22:15:00
4:35 PM,54.0,46.0,75,30.12,10.0,South,10.4,-,N/A,,Overcast,170,2012-11-19 22:35:00
4:55 PM,54.0,46.8,77,30.11,10.0,SSE,9.2,-,N/A,,Overcast,160,2012-11-19 22:55:00
5:15 PM,54.0,47.3,78,30.12,10.0,South,10.4,-,N/A,,Overcast,180,2012-11-19 23:15:00
5:35 PM,51.4,44.8,78,30.12,10.0,South,10.4,-,N/A,,Overcast,170,2012-11-19 23:35:00
5:55 PM,51.4,45.1,79,30.12,10.0,SSE,9.2,-,N/A,,Overcast,160,2012-11-19 23:55:00
6:15 PM,51.4,45.5,80,30.13,10.0,SSE,6.9,-,N/A,,Overcast,150,2012-11-20 00:15:00
6:35 PM,51.4,45.1,79,30.13,10.0,SSE,5.8,-,N/A,,Overcast,160,2012-11-20 00:35:00
6:55 PM,51.4,45.5,80,30.13,10.0,South,4.6,-,N/A,,Overcast,180,2012-11-20 00:55:00
7:15 PM,50.9,44.8,80,30.13,10.0,South,6.9,-,N/A,,Overcast,180,2012-11-20 01:15:00
7:35 PM,49.8,43.7,79,30.13,10.0,South,5.8,-,N/A,,Overcast,180,2012-11-20 01:35:00
7:55 PM,49.5,43.5,80,30.14,10.0,South,5.8,-,N/A,,Overcast,180,2012-11-20 01:55:00
8:15 PM,49.1,43.0,79,30.13,10.0,South,6.9,-,N/A,,Overcast,180,2012-11-20 02:15:00
8:35 PM,49.1,43.2,80,30.12,10.0,South,5.8,-,N/A,,Overcast,180,2012-11-20 02:35:00
8:55 PM,49.1,43.2,80,30.12,10.0,South,8.1,-,N/A,,Overcast,180,2012-11-20 02:55:00
9:15 PM,49.1,43.2,80,30.11,10.0,South,8.1,-,N/A,,Overcast,180,2012-11-20 03:15:00
9:35 PM,49.1,43.0,79,30.11,10.0,South,9.2,-,N/A,,Overcast,180,2012-11-20 03:35:00
9:55 PM,49.1,43.0,79,30.11,10.0,South,9.2,-,N/A,,Overcast,180,2012-11-20 03:55:00
10:15 PM,49.1,43.3,81,30.11,10.0,South,9.2,-,N/A,,Overcast,190,2012-11-20 04:15:00
10:35 PM,49.1,43.3,81,30.11,10.0,South,8.1,-,N/A,,Overcast,190,2012-11-20 04:35:00
10:55 PM,49.1,42.8,79,30.10,10.0,SSW,8.1,-,N/A,,Overcast,200,2012-11-20 04:55:00
11:15 PM,49.1,43.2,80,30.10,10.0,SSW,8.1,-,N/A,,Overcast,200,2012-11-20 05:15:00
11:35 PM,48.6,43.2,82,30.10,10.0,SSW,5.8,-,N/A,,Overcast,200,2012-11-20 05:35:00
11:55 PM,47.8,42.8,83,30.10,10.0,SSW,6.9,-,N/A,,Overcast,210,2012-11-20 05:55:00